sensor_id;sensor_type;location;lat;lon;timestamp;pressure;altitude;pressure_sealevel;temperature;humidity
21433;BME280;18592;49.708;10.900;2022-10-16T00:01:13;98457.41;;;19.76;59.09
21433;BME280;18592;49.708;10.900;2022-10-16T00:03:17;98460.19;;;19.76;59.09
21433;BME280;18592;49.708;10.900;2022-10-16T00:05:39;98455.16;;;19.78;59.49
21433;BME280;18592;49.708;10.900;2022-10-16T00:07:56;98454.66;;;19.76;59.22
21433;BME280;18592;49.708;10.900;2022-10-16T00:10:12;98456.59;;;19.75;59.41
21433;BME280;18592;49.708;10.900;2022-10-16T00:12:19;98458.22;;;19.76;59.14
21433;BME280;18592;49.708;10.900;2022-10-16T00:14:35;98461.78;;;19.77;59.53
21433;BME280;18592;49.708;10.900;2022-10-16T00:16:38;98476.13;;;19.79;59.28
21433;BME280;18592;49.708;10.900;2022-10-16T00:18:54;98478.88;;;19.79;59.21
21433;BME280;18592;49.708;10.900;2022-10-16T00:21:13;98468.66;;;19.79;58.90
21433;BME280;18592;49.708;10.900;2022-10-16T00:23:18;98465.06;;;19.79;59.40
21433;BME280;18592;49.708;10.900;2022-10-16T00:25:29;98467.03;;;19.78;59.06
21433;BME280;18592;49.708;10.900;2022-10-16T00:27:36;98465.06;;;19.79;59.40
21433;BME280;18592;49.708;10.900;2022-10-16T00:29:38;98467.53;;;19.80;59.34
21433;BME280;18592;49.708;10.900;2022-10-16T00:31:40;98473.34;;;19.79;58.96
21433;BME280;18592;49.708;10.900;2022-10-16T00:33:51;98452.06;;;19.79;59.08
21433;BME280;18592;49.708;10.900;2022-10-16T00:35:59;98454.53;;;19.81;58.91
21433;BME280;18592;49.708;10.900;2022-10-16T00:38:02;98457.28;;;19.81;59.15
21433;BME280;18592;49.708;10.900;2022-10-16T00:40:05;98457.28;;;19.81;59.20
21433;BME280;18592;49.708;10.900;2022-10-16T00:42:15;98451.22;;;19.79;59.14
21433;BME280;18592;49.708;10.900;2022-10-16T00:46:44;98453.19;;;19.78;58.91
21433;BME280;18592;49.708;10.900;2022-10-16T00:48:52;98449.63;;;19.78;58.94
21433;BME280;18592;49.708;10.900;2022-10-16T00:50:57;98460.34;;;19.79;59.23
21433;BME280;18592;49.708;10.900;2022-10-16T00:53:01;98457.91;;;19.78;58.91
21433;BME280;18592;49.708;10.900;2022-10-16T00:55:10;98468.66;;;19.79;59.18
21433;BME280;18592;49.708;10.900;2022-10-16T00:57:13;98471.75;;;19.78;59.26
21433;BME280;18592;49.708;10.900;2022-10-16T00:59:39;98480.34;;;19.76;59.10
21433;BME280;18592;49.708;10.900;2022-10-16T01:01:41;98474.00;;;19.76;59.02
21433;BME280;18592;49.708;10.900;2022-10-16T01:03:44;98478.50;;;19.72;59.52
21433;BME280;18592;49.708;10.900;2022-10-16T01:05:54;98481.78;;;19.74;59.43
21433;BME280;18592;49.708;10.900;2022-10-16T01:08:16;98483.44;;;19.75;59.27
21433;BME280;18592;49.708;10.900;2022-10-16T01:10:46;98479.00;;;19.74;59.42
21433;BME280;18592;49.708;10.900;2022-10-16T01:13:09;98471.88;;;19.73;59.20
21433;BME280;18592;49.708;10.900;2022-10-16T01:17:34;98464.69;;;19.72;59.07
21433;BME280;18592;49.708;10.900;2022-10-16T01:20:00;98471.38;;;19.71;59.40
21433;BME280;18592;49.708;10.900;2022-10-16T01:22:06;98465.84;;;19.71;59.33
21433;BME280;18592;49.708;10.900;2022-10-16T01:24:33;98466.94;;;19.70;59.22
21433;BME280;18592;49.708;10.900;2022-10-16T01:27:09;98466.94;;;19.70;59.31
21433;BME280;18592;49.708;10.900;2022-10-16T01:29:19;98465.31;;;19.69;59.30
21433;BME280;18592;49.708;10.900;2022-10-16T01:31:30;98460.59;;;19.69;59.40
21433;BME280;18592;49.708;10.900;2022-10-16T01:34:00;98467.56;;;19.67;59.10
21433;BME280;18592;49.708;10.900;2022-10-16T01:36:21;98464.81;;;19.67;59.37
21433;BME280;18592;49.708;10.900;2022-10-16T01:38:40;98473.94;;;19.67;59.50
21433;BME280;18592;49.708;10.900;2022-10-16T01:40:50;98483.66;;;19.64;59.21
21433;BME280;18592;49.708;10.900;2022-10-16T01:43:24;98501.38;;;19.63;59.69
21433;BME280;18592;49.708;10.900;2022-10-16T01:45:29;98502.81;;;19.61;59.53
21433;BME280;18592;49.708;10.900;2022-10-16T01:47:33;98504.47;;;19.62;59.26
21433;BME280;18592;49.708;10.900;2022-10-16T01:49:38;98494.22;;;19.62;59.31
21433;BME280;18592;49.708;10.900;2022-10-16T01:51:47;98498.09;;;19.61;59.37
21433;BME280;18592;49.708;10.900;2022-10-16T01:53:59;98505.59;;;19.61;59.57
21433;BME280;18592;49.708;10.900;2022-10-16T01:56:13;98511.44;;;19.59;59.72
21433;BME280;18592;49.708;10.900;2022-10-16T01:58:35;98503.47;;;19.58;59.74
21433;BME280;18592;49.708;10.900;2022-10-16T02:00:53;98507.84;;;19.59;59.26
21433;BME280;18592;49.708;10.900;2022-10-16T02:02:57;98502.31;;;19.59;59.57
21433;BME280;18592;49.708;10.900;2022-10-16T02:05:10;98506.22;;;19.58;59.40
21433;BME280;18592;49.708;10.900;2022-10-16T02:07:14;98489.63;;;19.58;59.33
21433;BME280;18592;49.708;10.900;2022-10-16T02:09:18;98498.72;;;19.58;59.62
21433;BME280;18592;49.708;10.900;2022-10-16T02:11:20;98504.25;;;19.58;59.70
21433;BME280;18592;49.708;10.900;2022-10-16T02:13:51;98510.09;;;19.57;59.87
21433;BME280;18592;49.708;10.900;2022-10-16T02:15:51;98492.19;;;19.54;59.59
21433;BME280;18592;49.708;10.900;2022-10-16T02:17:55;98494.63;;;19.56;59.89
21433;BME280;18592;49.708;10.900;2022-10-16T02:19:58;98480.50;;;19.57;59.39
21433;BME280;18592;49.708;10.900;2022-10-16T02:22:04;98476.94;;;19.57;59.93
21433;BME280;18592;49.708;10.900;2022-10-16T02:24:38;98476.44;;;19.55;59.86
21433;BME280;18592;49.708;10.900;2022-10-16T02:26:57;98485.84;;;19.54;59.69
21433;BME280;18592;49.708;10.900;2022-10-16T02:29:07;98484.22;;;19.53;59.79
21433;BME280;18592;49.708;10.900;2022-10-16T02:31:16;98497.72;;;19.54;59.86
21433;BME280;18592;49.708;10.900;2022-10-16T02:33:21;98489.75;;;19.53;60.19
21433;BME280;18592;49.708;10.900;2022-10-16T02:35:24;98493.63;;;19.52;60.08
21433;BME280;18592;49.708;10.900;2022-10-16T02:37:27;98499.97;;;19.52;59.88
21433;BME280;18592;49.708;10.900;2022-10-16T02:39:44;98505.50;;;19.52;60.00
21433;BME280;18592;49.708;10.900;2022-10-16T02:41:48;98500.28;;;19.51;59.91
21433;BME280;18592;49.708;10.900;2022-10-16T02:43:54;98492.81;;;19.51;60.37
21433;BME280;18592;49.708;10.900;2022-10-16T02:46:00;98493.63;;;19.52;60.16
21433;BME280;18592;49.708;10.900;2022-10-16T02:48:03;98485.00;;;19.53;60.24
21433;BME280;18592;49.708;10.900;2022-10-16T02:50:06;98488.94;;;19.52;60.33
21433;BME280;18592;49.708;10.900;2022-10-16T02:52:13;98496.72;;;19.50;60.42
21433;BME280;18592;49.708;10.900;2022-10-16T02:54:17;98499.16;;;19.52;60.35
21433;BME280;18592;49.708;10.900;2022-10-16T02:56:32;98492.50;;;19.53;60.27
21433;BME280;18592;49.708;10.900;2022-10-16T02:58:43;98499.97;;;19.52;60.36
21433;BME280;18592;49.708;10.900;2022-10-16T03:00:59;98502.75;;;19.52;60.34
21433;BME280;18592;49.708;10.900;2022-10-16T03:03:09;98510.72;;;19.54;59.97
21433;BME280;18592;49.708;10.900;2022-10-16T03:05:25;98500.81;;;19.53;60.00
21433;BME280;18592;49.708;10.900;2022-10-16T03:07:27;98501.59;;;19.53;60.12
21433;BME280;18592;49.708;10.900;2022-10-16T03:09:29;98500.50;;;19.54;60.35
21433;BME280;18592;49.708;10.900;2022-10-16T03:11:47;98500.50;;;19.54;60.25
21433;BME280;18592;49.708;10.900;2022-10-16T03:13:53;98505.19;;;19.54;60.42
21433;BME280;18592;49.708;10.900;2022-10-16T03:15:55;98506.34;;;19.53;60.17
21433;BME280;18592;49.708;10.900;2022-10-16T03:18:13;98516.56;;;19.52;60.29
21433;BME280;18592;49.708;10.900;2022-10-16T03:20:31;98512.66;;;19.53;60.21
21433;BME280;18592;49.708;10.900;2022-10-16T03:22:33;98509.91;;;19.53;60.55
21433;BME280;18592;49.708;10.900;2022-10-16T03:24:38;98503.88;;;19.51;60.57
21433;BME280;18592;49.708;10.900;2022-10-16T03:26:48;98513.31;;;19.50;60.17
21433;BME280;18592;49.708;10.900;2022-10-16T03:28:49;98509.91;;;19.53;60.26
21433;BME280;18592;49.708;10.900;2022-10-16T03:30:51;98505.50;;;19.52;60.14
21433;BME280;18592;49.708;10.900;2022-10-16T03:32:54;98518.19;;;19.53;60.41
21433;BME280;18592;49.708;10.900;2022-10-16T03:34:56;98509.09;;;19.53;60.15
21433;BME280;18592;49.708;10.900;2022-10-16T03:37:02;98511.03;;;19.52;60.41
21433;BME280;18592;49.708;10.900;2022-10-16T03:39:04;98515.75;;;19.52;60.23
21433;BME280;18592;49.708;10.900;2022-10-16T03:41:07;98520.78;;;19.50;60.68
21433;BME280;18592;49.708;10.900;2022-10-16T03:43:09;98517.69;;;19.51;60.26
21433;BME280;18592;49.708;10.900;2022-10-16T03:45:12;98517.69;;;19.51;60.54
21433;BME280;18592;49.708;10.900;2022-10-16T03:47:17;98516.56;;;19.52;60.28
21433;BME280;18592;49.708;10.900;2022-10-16T03:49:23;98509.91;;;19.53;60.27
21433;BME280;18592;49.708;10.900;2022-10-16T03:51:24;98517.06;;;19.54;60.00
21433;BME280;18592;49.708;10.900;2022-10-16T03:53:29;98515.13;;;19.55;60.47
21433;BME280;18592;49.708;10.900;2022-10-16T03:55:31;98520.97;;;19.53;60.02
21433;BME280;18592;49.708;10.900;2022-10-16T03:57:33;98518.19;;;19.53;60.48
21433;BME280;18592;49.708;10.900;2022-10-16T03:59:35;98526.50;;;19.53;60.22
21433;BME280;18592;49.708;10.900;2022-10-16T04:01:51;98531.72;;;19.55;60.27
21433;BME280;18592;49.708;10.900;2022-10-16T04:03:53;98529.78;;;19.55;60.24
21433;BME280;18592;49.708;10.900;2022-10-16T04:05:58;98528.97;;;19.55;59.88
21433;BME280;18592;49.708;10.900;2022-10-16T04:08:00;98521.50;;;19.55;60.26
21433;BME280;18592;49.708;10.900;2022-10-16T04:10:03;98529.78;;;19.55;59.99
21433;BME280;18592;49.708;10.900;2022-10-16T04:12:06;98538.88;;;19.56;60.19
21433;BME280;18592;49.708;10.900;2022-10-16T04:14:08;98542.47;;;19.56;60.39
21433;BME280;18592;49.708;10.900;2022-10-16T04:16:09;98538.09;;;19.55;60.13
21433;BME280;18592;49.708;10.900;2022-10-16T04:18:11;98536.44;;;19.54;60.29
21433;BME280;18592;49.708;10.900;2022-10-16T04:20:13;98540.03;;;19.55;60.21
21433;BME280;18592;49.708;10.900;2022-10-16T04:22:15;98548.63;;;19.53;60.58
21433;BME280;18592;49.708;10.900;2022-10-16T04:24:17;98547.00;;;19.52;60.41
21433;BME280;18592;49.708;10.900;2022-10-16T04:26:19;98551.38;;;19.53;60.37
21433;BME280;18592;49.708;10.900;2022-10-16T04:28:21;98552.19;;;19.54;60.50
21433;BME280;18592;49.708;10.900;2022-10-16T04:30:23;98545.84;;;19.53;60.11
21433;BME280;18592;49.708;10.900;2022-10-16T04:32:26;98547.50;;;19.54;60.49
21433;BME280;18592;49.708;10.900;2022-10-16T04:34:36;98544.72;;;19.54;60.54
21433;BME280;18592;49.708;10.900;2022-10-16T04:36:39;98545.84;;;19.53;60.45
21433;BME280;18592;49.708;10.900;2022-10-16T04:38:56;98552.19;;;19.54;60.58
21433;BME280;18592;49.708;10.900;2022-10-16T04:40:59;98560.50;;;19.54;60.41
21433;BME280;18592;49.708;10.900;2022-10-16T04:43:04;98550.59;;;19.53;60.71
21433;BME280;18592;49.708;10.900;2022-10-16T04:45:11;98560.22;;;19.55;60.38
21433;BME280;18592;49.708;10.900;2022-10-16T04:47:18;98554.69;;;19.55;60.37
21433;BME280;18592;49.708;10.900;2022-10-16T04:49:23;98559.38;;;19.55;60.42
21433;BME280;18592;49.708;10.900;2022-10-16T04:51:25;98561.00;;;19.56;60.04
21433;BME280;18592;49.708;10.900;2022-10-16T04:53:27;98551.91;;;19.55;60.09
21433;BME280;18592;49.708;10.900;2022-10-16T04:55:29;98551.91;;;19.55;60.57
21433;BME280;18592;49.708;10.900;2022-10-16T04:57:31;98551.09;;;19.55;60.21
21433;BME280;18592;49.708;10.900;2022-10-16T04:59:34;98552.69;;;19.56;60.36
21433;BME280;18592;49.708;10.900;2022-10-16T05:01:36;98540.84;;;19.55;60.08
21433;BME280;18592;49.708;10.900;2022-10-16T05:03:44;98542.28;;;19.53;60.68
21433;BME280;18592;49.708;10.900;2022-10-16T05:05:47;98553.03;;;19.54;60.39
21433;BME280;18592;49.708;10.900;2022-10-16T05:07:49;98557.72;;;19.54;60.26
21433;BME280;18592;49.708;10.900;2022-10-16T05:09:51;98558.56;;;19.54;60.08
21433;BME280;18592;49.708;10.900;2022-10-16T05:11:53;98561.00;;;19.56;60.13
21433;BME280;18592;49.708;10.900;2022-10-16T05:13:55;98568.50;;;19.55;60.03
21433;BME280;18592;49.708;10.900;2022-10-16T05:15:57;98561.00;;;19.56;60.09
21433;BME280;18592;49.708;10.900;2022-10-16T05:17:59;98561.00;;;19.56;60.53
21433;BME280;18592;49.708;10.900;2022-10-16T05:20:01;98562.44;;;19.53;60.10
21433;BME280;18592;49.708;10.900;2022-10-16T05:22:04;98564.09;;;19.54;60.47
21433;BME280;18592;49.708;10.900;2022-10-16T05:24:06;98560.50;;;19.54;60.43
21433;BME280;18592;49.708;10.900;2022-10-16T05:26:08;98564.69;;;19.51;60.74
21433;BME280;18592;49.708;10.900;2022-10-16T05:28:10;98573.59;;;19.48;60.50
21433;BME280;18592;49.708;10.900;2022-10-16T05:30:20;98578.34;;;19.48;60.31
21433;BME280;18592;49.708;10.900;2022-10-16T05:32:21;98587.97;;;19.50;60.33
21433;BME280;18592;49.708;10.900;2022-10-16T05:34:23;98590.72;;;19.50;60.56
21433;BME280;18592;49.708;10.900;2022-10-16T05:36:25;98583.56;;;19.49;60.31
21433;BME280;18592;49.708;10.900;2022-10-16T05:38:28;98590.19;;;19.48;60.58
21433;BME280;18592;49.708;10.900;2022-10-16T05:40:33;98598.50;;;19.48;60.46
21433;BME280;18592;49.708;10.900;2022-10-16T05:42:38;98595.72;;;19.48;60.43
21433;BME280;18592;49.708;10.900;2022-10-16T05:44:42;98596.88;;;19.47;60.60
21433;BME280;18592;49.708;10.900;2022-10-16T05:46:46;98609.03;;;19.46;60.33
21433;BME280;18592;49.708;10.900;2022-10-16T05:48:48;98603.50;;;19.46;60.51
21433;BME280;18592;49.708;10.900;2022-10-16T05:51:00;98598.50;;;19.48;60.62
21433;BME280;18592;49.708;10.900;2022-10-16T05:53:04;98600.75;;;19.46;60.69
21433;BME280;18592;49.708;10.900;2022-10-16T05:55:10;98593.88;;;19.44;61.03
21433;BME280;18592;49.708;10.900;2022-10-16T05:57:12;98594.41;;;19.46;60.80
21433;BME280;18592;49.708;10.900;2022-10-16T05:59:14;98598.81;;;19.47;60.49
21433;BME280;18592;49.708;10.900;2022-10-16T06:01:17;98619.81;;;19.48;60.38
21433;BME280;18592;49.708;10.900;2022-10-16T06:03:19;98614.28;;;19.48;60.39
21433;BME280;18592;49.708;10.900;2022-10-16T06:05:21;98611.81;;;19.46;60.47
21433;BME280;18592;49.708;10.900;2022-10-16T06:07:23;98616.50;;;19.46;60.55
21433;BME280;18592;49.708;10.900;2022-10-16T06:09:26;98609.03;;;19.46;60.72
21433;BME280;18592;49.708;10.900;2022-10-16T06:11:30;98619.00;;;19.47;60.76
21433;BME280;18592;49.708;10.900;2022-10-16T06:13:32;98622.38;;;19.44;60.83
21433;BME280;18592;49.708;10.900;2022-10-16T06:15:34;98619.59;;;19.44;60.47
21433;BME280;18592;49.708;10.900;2022-10-16T06:17:35;98620.44;;;19.45;60.72
21433;BME280;18592;49.708;10.900;2022-10-16T06:19:37;98627.56;;;19.46;60.57
21433;BME280;18592;49.708;10.900;2022-10-16T06:21:39;98637.00;;;19.45;60.97
21433;BME280;18592;49.708;10.900;2022-10-16T06:23:41;98634.25;;;19.45;60.58
21433;BME280;18592;49.708;10.900;2022-10-16T06:25:43;98626.47;;;19.47;60.62
21433;BME280;18592;49.708;10.900;2022-10-16T06:27:47;98631.16;;;19.46;60.71
21433;BME280;18592;49.708;10.900;2022-10-16T06:29:50;98628.41;;;19.46;60.33
21433;BME280;18592;49.708;10.900;2022-10-16T06:31:51;98630.88;;;19.48;60.60
21433;BME280;18592;49.708;10.900;2022-10-16T06:33:54;98641.63;;;19.49;60.55
21433;BME280;18592;49.708;10.900;2022-10-16T06:36:05;98638.84;;;19.49;60.83
21433;BME280;18592;49.708;10.900;2022-10-16T06:38:08;98630.56;;;19.49;60.36
21433;BME280;18592;49.708;10.900;2022-10-16T06:40:14;98649.59;;;19.51;60.38
21433;BME280;18592;49.708;10.900;2022-10-16T06:42:16;98639.34;;;19.51;60.51
21433;BME280;18592;49.708;10.900;2022-10-16T06:44:28;98641.28;;;19.51;60.61
21433;BME280;18592;49.708;10.900;2022-10-16T06:46:32;98642.94;;;19.52;60.79
21433;BME280;18592;49.708;10.900;2022-10-16T06:48:41;98646.53;;;19.52;60.49
21433;BME280;18592;49.708;10.900;2022-10-16T06:50:43;98659.53;;;19.52;60.50
21433;BME280;18592;49.708;10.900;2022-10-16T06:52:44;98657.28;;;19.54;60.29
21433;BME280;18592;49.708;10.900;2022-10-16T06:54:46;98671.09;;;19.54;60.38
21433;BME280;18592;49.708;10.900;2022-10-16T06:56:48;98669.50;;;19.53;60.50
21433;BME280;18592;49.708;10.900;2022-10-16T06:58:50;98679.22;;;19.50;60.87
21433;BME280;18592;49.708;10.900;2022-10-16T07:00:55;98671.44;;;19.52;60.71
21433;BME280;18592;49.708;10.900;2022-10-16T07:02:58;98677.78;;;19.53;60.61
21433;BME280;18592;49.708;10.900;2022-10-16T07:05:01;98673.69;;;19.50;61.10
21433;BME280;18592;49.708;10.900;2022-10-16T07:07:04;98689.63;;;19.53;60.58
21433;BME280;18592;49.708;10.900;2022-10-16T07:09:12;98685.75;;;19.54;60.58
21433;BME280;18592;49.708;10.900;2022-10-16T07:13:51;98691.28;;;19.54;60.75
21433;BME280;18592;49.708;10.900;2022-10-16T07:15:56;98691.81;;;19.56;60.72
21433;BME280;18592;49.708;10.900;2022-10-16T07:18:01;98705.63;;;19.56;60.70
21433;BME280;18592;49.708;10.900;2022-10-16T07:20:03;98704.19;;;19.59;60.65
21433;BME280;18592;49.708;10.900;2022-10-16T07:22:05;98706.66;;;19.60;60.96
21433;BME280;18592;49.708;10.900;2022-10-16T07:24:11;98709.72;;;19.59;61.09
21433;BME280;18592;49.708;10.900;2022-10-16T07:26:16;98708.63;;;19.60;61.00
21433;BME280;18592;49.708;10.900;2022-10-16T07:28:18;98709.13;;;19.62;60.69
21433;BME280;18592;49.708;10.900;2022-10-16T07:30:19;98707.19;;;19.62;61.00
21433;BME280;18592;49.708;10.900;2022-10-16T07:32:21;98711.56;;;19.63;60.70
21433;BME280;18592;49.708;10.900;2022-10-16T07:34:23;98704.09;;;19.64;60.92
21433;BME280;18592;49.708;10.900;2022-10-16T07:36:24;98708.19;;;19.67;61.06
21433;BME280;18592;49.708;10.900;2022-10-16T07:38:26;98705.44;;;19.67;61.31
21433;BME280;18592;49.708;10.900;2022-10-16T07:40:34;98711.78;;;19.67;60.91
21433;BME280;18592;49.708;10.900;2022-10-16T07:42:38;98713.44;;;19.68;61.40
21433;BME280;18592;49.708;10.900;2022-10-16T07:44:40;98712.00;;;19.71;61.31
21433;BME280;18592;49.708;10.900;2022-10-16T07:46:42;98718.88;;;19.73;61.11
21433;BME280;18592;49.708;10.900;2022-10-16T07:48:44;98727.34;;;19.77;60.84
21433;BME280;18592;49.708;10.900;2022-10-16T07:50:48;98721.53;;;19.78;61.18
21433;BME280;18592;49.708;10.900;2022-10-16T07:52:50;98729.00;;;19.78;61.48
21433;BME280;18592;49.708;10.900;2022-10-16T07:54:52;98727.06;;;19.78;61.29
21433;BME280;18592;49.708;10.900;2022-10-16T07:56:59;98720.63;;;19.83;61.45
21433;BME280;18592;49.708;10.900;2022-10-16T07:59:01;98729.94;;;19.87;61.31
21433;BME280;18592;49.708;10.900;2022-10-16T08:01:05;98734.84;;;19.90;61.32
21433;BME280;18592;49.708;10.900;2022-10-16T08:03:08;98731.97;;;19.95;61.20
21433;BME280;18592;49.708;10.900;2022-10-16T08:05:12;98731.97;;;19.95;61.87
21433;BME280;18592;49.708;10.900;2022-10-16T08:07:14;98736.06;;;19.97;61.45
21433;BME280;18592;49.708;10.900;2022-10-16T08:09:16;98742.94;;;20.00;61.79
21433;BME280;18592;49.708;10.900;2022-10-16T08:11:20;98737.63;;;20.03;61.68
21433;BME280;18592;49.708;10.900;2022-10-16T08:13:22;98735.03;;;20.07;61.67
21433;BME280;18592;49.708;10.900;2022-10-16T08:15:25;98736.88;;;20.11;61.58
21433;BME280;18592;49.708;10.900;2022-10-16T08:17:26;98739.34;;;20.13;61.62
21433;BME280;18592;49.708;10.900;2022-10-16T08:19:29;98729.63;;;20.15;61.78
21433;BME280;18592;49.708;10.900;2022-10-16T08:21:33;98733.72;;;20.18;61.69
21433;BME280;18592;49.708;10.900;2022-10-16T08:23:34;98740.06;;;20.18;61.81
21433;BME280;18592;49.708;10.900;2022-10-16T08:25:37;98743.34;;;20.20;61.88
21433;BME280;18592;49.708;10.900;2022-10-16T08:27:40;98737.22;;;20.23;61.51
21433;BME280;18592;49.708;10.900;2022-10-16T08:29:42;98750.13;;;20.28;61.29
21433;BME280;18592;49.708;10.900;2022-10-16T08:31:44;98734.66;;;20.27;61.99
21433;BME280;18592;49.708;10.900;2022-10-16T08:33:47;98739.56;;;20.30;61.86
21433;BME280;18592;49.708;10.900;2022-10-16T08:35:52;98735.69;;;20.31;61.88
21433;BME280;18592;49.708;10.900;2022-10-16T08:37:55;98745.00;;;20.35;61.64
21433;BME280;18592;49.708;10.900;2022-10-16T08:39:56;98746.00;;;20.39;61.75
21433;BME280;18592;49.708;10.900;2022-10-16T08:49:11;98761.50;;;20.54;61.85
21433;BME280;18592;49.708;10.900;2022-10-16T08:51:25;98768.88;;;20.58;62.02
21433;BME280;18592;49.708;10.900;2022-10-16T08:53:38;98761.25;;;20.64;62.19
21433;BME280;18592;49.708;10.900;2022-10-16T08:55:52;98766.38;;;20.70;61.98
21433;BME280;18592;49.708;10.900;2022-10-16T08:57:54;98774.56;;;20.75;61.80
21433;BME280;18592;49.708;10.900;2022-10-16T09:00:00;98761.75;;;20.79;61.77
21433;BME280;18592;49.708;10.900;2022-10-16T09:06:40;98754.50;;;20.92;62.05
21433;BME280;18592;49.708;10.900;2022-10-16T09:13:48;98766.69;;;21.05;62.24
21433;BME280;18592;49.708;10.900;2022-10-16T09:18:26;98766.97;;;21.17;62.26
21433;BME280;18592;49.708;10.900;2022-10-16T09:20:43;98766.50;;;21.23;62.53
21433;BME280;18592;49.708;10.900;2022-10-16T09:22:48;98774.69;;;21.28;62.23
21433;BME280;18592;49.708;10.900;2022-10-16T09:24:59;98771.78;;;21.33;62.40
21433;BME280;18592;49.708;10.900;2022-10-16T09:27:06;98777.72;;;21.40;62.21
21433;BME280;18592;49.708;10.900;2022-10-16T09:29:17;98779.34;;;21.41;62.09
21433;BME280;18592;49.708;10.900;2022-10-16T09:31:22;98783.94;;;21.46;61.87
21433;BME280;18592;49.708;10.900;2022-10-16T09:33:32;98789.69;;;21.49;61.85
21433;BME280;18592;49.708;10.900;2022-10-16T09:35:40;98793.78;;;21.52;61.76
21433;BME280;18592;49.708;10.900;2022-10-16T09:37:44;98790.88;;;21.57;61.83
21433;BME280;18592;49.708;10.900;2022-10-16T09:39:51;98790.56;;;21.59;61.88
21433;BME280;18592;49.708;10.900;2022-10-16T09:41:54;98789.09;;;21.61;61.46
21433;BME280;18592;49.708;10.900;2022-10-16T09:43:59;98798.75;;;21.64;61.46
21433;BME280;18592;49.708;10.900;2022-10-16T09:46:06;98795.03;;;21.68;61.54
21433;BME280;18592;49.708;10.900;2022-10-16T09:48:12;98800.28;;;21.70;61.43
21433;BME280;18592;49.708;10.900;2022-10-16T09:50:24;98801.59;;;21.72;61.53
21433;BME280;18592;49.708;10.900;2022-10-16T09:52:31;98797.03;;;21.76;61.69
21433;BME280;18592;49.708;10.900;2022-10-16T09:54:33;98799.19;;;21.79;61.51
21433;BME280;18592;49.708;10.900;2022-10-16T09:56:37;98807.69;;;21.83;61.43
21433;BME280;18592;49.708;10.900;2022-10-16T09:58:53;98806.53;;;21.84;61.51
21433;BME280;18592;49.708;10.900;2022-10-16T10:00:55;98811.16;;;21.88;61.46
21433;BME280;18592;49.708;10.900;2022-10-16T10:02:57;98799.44;;;21.91;61.47
21433;BME280;18592;49.708;10.900;2022-10-16T10:04:59;98809.06;;;21.94;61.17
21433;BME280;18592;49.708;10.900;2022-10-16T10:07:02;98807.31;;;21.98;61.32
21433;BME280;18592;49.708;10.900;2022-10-16T10:13:44;98812.41;;;22.04;61.45
21433;BME280;18592;49.708;10.900;2022-10-16T10:15:46;98807.34;;;22.06;61.17
21433;BME280;18592;49.708;10.900;2022-10-16T10:17:53;98811.13;;;22.10;61.32
21433;BME280;18592;49.708;10.900;2022-10-16T10:20:18;98812.75;;;22.11;61.17
21433;BME280;18592;49.708;10.900;2022-10-16T10:24:54;98822.09;;;22.16;61.17
21433;BME280;18592;49.708;10.900;2022-10-16T10:27:02;98824.25;;;22.19;61.03
21433;BME280;18592;49.708;10.900;2022-10-16T10:29:28;98821.94;;;22.21;61.42
21433;BME280;18592;49.708;10.900;2022-10-16T10:34:16;98809.69;;;22.22;60.91
21433;BME280;18592;49.708;10.900;2022-10-16T10:36:58;98822.94;;;22.25;61.12
21433;BME280;18592;49.708;10.900;2022-10-16T10:39:30;98816.25;;;22.26;61.35
21433;BME280;18592;49.708;10.900;2022-10-16T10:44:11;98814.16;;;22.31;61.28
21433;BME280;18592;49.708;10.900;2022-10-16T10:46:56;98811.88;;;22.33;61.22
21433;BME280;18592;49.708;10.900;2022-10-16T10:49:08;98815.97;;;22.36;61.30
21433;BME280;18592;49.708;10.900;2022-10-16T10:51:20;98809.78;;;22.39;61.22
21433;BME280;18592;49.708;10.900;2022-10-16T10:55:48;98812.41;;;22.44;61.28
21433;BME280;18592;49.708;10.900;2022-10-16T11:03:13;98810.13;;;22.54;61.53
21433;BME280;18592;49.708;10.900;2022-10-16T11:05:28;98825.84;;;22.59;61.27
21433;BME280;18592;49.708;10.900;2022-10-16T11:07:49;98824.56;;;22.65;61.41
21433;BME280;18592;49.708;10.900;2022-10-16T11:09:57;98818.38;;;22.68;61.39
21433;BME280;18592;49.708;10.900;2022-10-16T11:12:07;98820.16;;;22.72;61.25
21433;BME280;18592;49.708;10.900;2022-10-16T11:14:23;98824.75;;;22.77;61.50
21433;BME280;18592;49.708;10.900;2022-10-16T11:16:31;98815.94;;;22.84;61.62
21433;BME280;18592;49.708;10.900;2022-10-16T11:18:49;98819.06;;;22.91;61.56
21433;BME280;18592;49.708;10.900;2022-10-16T11:20:57;98810.41;;;23.01;61.63
21433;BME280;18592;49.708;10.900;2022-10-16T11:23:25;98816.47;;;23.11;62.15
21433;BME280;18592;49.708;10.900;2022-10-16T11:25:32;98818.28;;;23.24;62.08
21433;BME280;18592;49.708;10.900;2022-10-16T11:27:38;98819.28;;;23.37;62.35
21433;BME280;18592;49.708;10.900;2022-10-16T11:29:49;98827.44;;;23.51;62.37
21433;BME280;18592;49.708;10.900;2022-10-16T11:32:05;98829.72;;;23.66;62.26
21433;BME280;18592;49.708;10.900;2022-10-16T11:34:26;98819.53;;;23.78;62.27
21433;BME280;18592;49.708;10.900;2022-10-16T11:37:27;98827.69;;;23.92;61.46
21433;BME280;18592;49.708;10.900;2022-10-16T11:43:41;98826.84;;;24.17;61.42
21433;BME280;18592;49.708;10.900;2022-10-16T11:46:00;98825.50;;;24.23;60.85
21433;BME280;18592;49.708;10.900;2022-10-16T11:48:23;98830.38;;;24.26;60.59
21433;BME280;18592;49.708;10.900;2022-10-16T11:50:40;98832.19;;;24.31;60.41
21433;BME280;18592;49.708;10.900;2022-10-16T11:53:03;98837.06;;;24.34;60.31
21433;BME280;18592;49.708;10.900;2022-10-16T11:57:21;98863.47;;;24.36;60.24
21433;BME280;18592;49.708;10.900;2022-10-16T11:59:33;98872.66;;;24.37;59.83